Time;durP1;ratioP1;P1;durP2;ratioP2;P2;SDS_P1;SDS_P2;PMS_P1;PMS_P2;Temp;Humidity;BMP_temperature;BMP_pressure;BME280_temperature;BME280_humidity;BME280_pressure;Samples;Min_cycle;Max_cycle;Signal;HPM_P1;HPM_P2
2022/07/22 00:03:06;;;;;;;10.20;9.40;;;;;21.40;99218.00;;;;16670276;28;20302;-47
2022/07/22 00:11:08;;;;;;;9.57;8.67;;;;;21.60;99216.00;;;;16687987;28;20690;-46
2022/07/22 00:19:12;;;;;;;9.40;8.60;;;;;21.80;99213.00;;;;16693307;28;20230;-47
2022/07/22 00:27:15;;;;;;;10.00;9.20;;;;;22.50;99216.00;;;;16673485;28;20226;-46
2022/07/22 00:35:19;;;;;;;9.90;9.10;;;;;21.60;99215.00;;;;16699158;28;20219;-48
2022/07/22 00:43:22;;;;;;;9.30;8.50;;;;;22.80;99202.00;;;;16669606;28;20238;-48
2022/07/22 00:51:28;;;;;;;9.33;8.53;;;;;22.10;99203.00;;;;16668505;28;20198;-47
2022/07/22 00:59:31;;;;;;;11.07;9.00;;;;;21.90;99198.00;;;;16683708;28;20292;-47
2022/07/22 01:07:35;;;;;;;9.20;8.50;;;;;22.30;99199.00;;;;16698446;28;20789;-47
2022/07/22 01:15:37;;;;;;;9.67;8.70;;;;;22.20;99194.00;;;;16676995;28;20218;-47
2022/07/22 01:23:41;;;;;;;9.47;8.53;;;;;21.20;99196.00;;;;16681583;28;20221;-46
2022/07/22 01:31:44;;;;;;;10.97;9.93;;;;;21.60;99191.00;;;;16692639;28;20256;-46
2022/07/22 01:39:49;;;;;;;8.97;8.30;;;;;22.10;99192.00;;;;16690726;28;20229;-47
2022/07/22 01:47:52;;;;;;;10.27;9.27;;;;;21.60;99188.00;;;;16686669;28;20612;-46
2022/07/22 01:55:56;;;;;;;10.77;9.87;;;;;20.90;99199.00;;;;16696109;28;20206;-46
2022/07/22 02:03:59;;;;;;;10.70;9.80;;;;;21.00;99194.00;;;;16705257;28;20305;-46
2022/07/22 02:12:03;;;;;;;10.23;9.37;;;;;20.60;99197.00;;;;16684395;28;20211;-47
2022/07/22 02:20:13;;;;;;;10.80;9.70;;;;;20.20;99196.00;;;;16681648;28;20222;-47
2022/07/22 02:28:17;;;;;;;10.00;9.20;;;;;21.50;99194.00;;;;16683811;28;20217;-47
2022/07/22 02:36:20;;;;;;;11.40;10.40;;;;;20.80;99191.00;;;;16675608;28;20218;-48
2022/07/22 02:44:25;;;;;;;10.37;9.57;;;;;20.80;99189.00;;;;16677589;28;20659;-46
2022/07/22 02:52:28;;;;;;;10.87;10.00;;;;;20.30;99185.00;;;;16756778;23;20733;-78
2022/07/22 03:00:32;;;;;;;11.13;10.03;;;;;21.20;99190.00;;;;16725676;28;20250;-80
2022/07/22 03:08:35;;;;;;;10.30;9.43;;;;;21.50;99179.00;;;;16735655;28;21516;-81
2022/07/22 03:16:39;;;;;;;10.30;9.50;;;;;21.60;99180.00;;;;16722523;28;20260;-79
2022/07/22 03:24:41;;;;;;;10.40;9.60;;;;;22.20;99186.00;;;;16725972;28;20625;-79
2022/07/22 03:32:46;;;;;;;10.40;9.50;;;;;21.20;99186.00;;;;16732678;28;21532;-78
2022/07/22 03:40:50;;;;;;;10.30;9.53;;;;;20.80;99192.00;;;;16722815;28;20217;-79
2022/07/22 03:48:55;;;;;;;11.17;10.27;;;;;21.20;99187.00;;;;16717470;28;20759;-78
2022/07/22 03:56:57;;;;;;;11.10;10.10;;;;;21.60;99188.00;;;;16721987;28;20593;-81
2022/07/22 04:05:01;;;;;;;12.10;10.90;;;;;20.20;99195.00;;;;16725067;28;20217;-80
2022/07/22 04:13:05;;;;;;;15.40;10.93;;;;;21.00;99202.00;;;;16715968;28;20221;-80
2022/07/22 04:21:22;;;;;;;11.93;10.90;;;;;21.10;99197.00;;;;16720869;28;20338;-80
2022/07/22 04:29:28;;;;;;;11.40;10.33;;;;;20.40;99192.00;;;;16734421;28;20313;-78
2022/07/22 04:37:32;;;;;;;12.47;11.27;;;;;21.30;99192.00;;;;16735496;28;20222;-80
2022/07/22 04:45:37;;;;;;;10.10;9.20;;;;;23.00;99180.00;;;;16764481;28;20244;-79
2022/07/22 04:53:41;;;;;;;12.33;11.33;;;;;21.10;99170.00;;;;16766760;28;20229;-77
2022/07/22 05:01:44;;;;;;;12.20;11.03;;;;;21.10;99174.00;;;;16719934;28;20224;-77
2022/07/22 05:09:48;;;;;;;13.33;12.30;;;;;21.70;99170.00;;;;16736020;28;20218;-77
2022/07/22 05:17:51;;;;;;;12.30;11.37;;;;;21.90;99174.00;;;;16723241;28;20308;-78
2022/07/22 05:26:00;;;;;;;12.67;11.43;;;;;23.60;99172.00;;;;16746921;28;20221;-76
2022/07/22 05:34:03;;;;;;;12.07;10.93;;;;;24.10;99167.00;;;;16719913;28;20224;-81
2022/07/22 05:42:13;;;;;;;18.53;16.87;;;;;24.50;99161.00;;;;16712507;28;20340;-77
2022/07/22 05:50:16;;;;;;;18.87;17.07;;;;;24.80;99155.00;;;;16737857;28;20221;-75
2022/07/22 05:58:20;;;;;;;23.53;21.20;;;;;23.80;99163.00;;;;16703038;28;20758;-75
2022/07/22 06:06:22;;;;;;;21.67;19.47;;;;;24.20;99159.00;;;;16714546;28;20241;-74
2022/07/22 06:14:27;;;;;;;23.57;21.17;;;;;23.50;99160.00;;;;16756255;28;20225;-80
2022/07/22 06:22:30;;;;;;;24.47;21.93;;;;;24.20;99162.00;;;;16708118;28;20232;-76
2022/07/22 06:30:34;;;;;;;21.60;19.63;;;;;23.60;99164.00;;;;16738056;28;20709;-75
2022/07/22 06:38:37;;;;;;;25.53;18.17;;;;;24.40;99158.00;;;;16712833;28;20245;-76
2022/07/22 06:47:00;;;;;;;19.00;17.30;;;;;24.20;99161.00;;;;16716616;28;20225;-74
2022/07/22 06:55:03;;;;;;;16.03;14.53;;;;;24.30;99162.00;;;;16712096;28;20297;-74
2022/07/22 07:03:11;;;;;;;17.60;16.00;;;;;25.10;99154.00;;;;16727508;28;20249;-74
2022/07/22 07:11:14;;;;;;;20.43;18.23;;;;;24.60;99151.00;;;;16709067;28;20288;-74
2022/07/22 07:19:19;;;;;;;16.60;15.10;;;;;24.70;99133.00;;;;16712223;28;20624;-75
2022/07/22 07:27:22;;;;;;;16.53;14.43;;;;;26.00;99129.00;;;;16729286;28;20232;-78
2022/07/22 07:35:29;;;;;;;17.97;16.23;;;;;25.60;99130.00;;;;16720163;28;20724;-76
2022/07/22 07:43:32;;;;;;;16.63;14.10;;;;;25.40;99119.00;;;;16732938;28;20226;-74
2022/07/22 07:51:38;;;;;;;17.50;16.10;;;;;25.90;99109.00;;;;16712605;28;20202;-75
2022/07/22 07:59:41;;;;;;;24.00;21.73;;;;;26.50;99100.00;;;;16731128;28;20551;-76
2022/07/22 08:07:46;;;;;;;17.70;16.20;;;;;27.20;99097.00;;;;16709984;28;20233;-77
2022/07/22 08:15:48;;;;;;;16.67;15.40;;;;;26.40;99093.00;;;;16707200;28;20222;-73
2022/07/22 08:23:59;;;;;;;16.23;14.83;;;;;27.30;99091.00;;;;16708902;28;20635;-76
2022/07/22 08:32:01;;;;;;;16.17;14.63;;;;;27.80;99097.00;;;;16704227;28;20199;-74
2022/07/22 08:40:08;;;;;;;15.70;14.20;;;;;28.20;99080.00;;;;16714124;28;20306;-74
2022/07/22 08:48:11;;;;;;;16.27;14.77;;;;;28.70;99068.00;;;;16759366;22;20318;-47
2022/07/22 08:56:33;;;;;;;18.30;14.33;;;;;28.70;99060.00;;;;16758154;28;20320;-47
2022/07/22 09:04:52;;;;;;;15.00;13.43;;;;;27.70;99052.00;;;;16762702;28;20234;-47
2022/07/22 09:12:59;;;;;;;13.67;12.47;;;;;28.60;99052.00;;;;16771272;28;20216;-47
2022/07/22 09:21:30;;;;;;;14.83;13.73;;;;;28.20;99042.00;;;;16772667;28;20600;-47
2022/07/22 09:30:04;;;;;;;14.37;13.07;;;;;27.90;99049.00;;;;16765553;28;20221;-47
2022/07/22 09:38:13;;;;;;;13.40;12.20;;;;;28.50;99051.00;;;;16773782;28;20580;-47
2022/07/22 09:46:18;;;;;;;13.27;12.10;;;;;27.90;99033.00;;;;16778356;28;20739;-47
2022/07/22 09:54:40;;;;;;;11.37;10.47;;;;;29.40;99017.00;;;;16791144;28;20217;-48
2022/07/22 10:02:49;;;;;;;11.60;10.43;;;;;29.30;99009.00;;;;16770890;28;20291;-47
2022/07/22 10:10:54;;;;;;;11.40;10.40;;;;;29.70;99003.00;;;;16802675;28;20217;-47
2022/07/22 10:18:58;;;;;;;10.50;9.80;;;;;30.30;98987.00;;;;16807479;28;20216;-48
2022/07/22 10:27:01;;;;;;;10.33;9.50;;;;;31.20;98974.00;;;;16793458;28;20291;-47
2022/07/22 10:35:24;;;;;;;9.57;8.80;;;;;31.90;98963.00;;;;16785695;28;20227;-47
2022/07/22 10:43:29;;;;;;;10.93;10.03;;;;;31.50;98954.00;;;;16790235;28;20243;-48
2022/07/22 10:51:33;;;;;;;9.53;8.83;;;;;32.50;98946.00;;;;16789719;28;20201;-48
2022/07/22 10:59:35;;;;;;;9.73;9.00;;;;;32.90;98941.00;;;;16772085;28;20298;-47
2022/07/22 11:07:44;;;;;;;9.10;8.40;;;;;32.30;98934.00;;;;16780138;28;20559;-48
2022/07/22 11:15:46;;;;;;;10.57;9.80;;;;;32.90;98933.00;;;;16779764;28;20214;-48
2022/07/22 11:23:52;;;;;;;10.40;9.70;;;;;34.60;98920.00;;;;16780247;28;20221;-47
2022/07/22 11:31:56;;;;;;;9.77;8.00;;;;;35.20;98911.00;;;;16781417;28;20200;-48
2022/07/22 11:40:03;;;;;;;8.60;7.90;;;;;33.40;98895.00;;;;16793751;28;20228;-48
2022/07/22 11:48:10;;;;;;;7.67;7.00;;;;;36.10;98891.00;;;;16788747;28;20236;-48
2022/07/22 11:56:14;;;;;;;7.33;6.73;;;;;36.30;98879.00;;;;16810873;28;20274;-47
2022/07/22 12:04:18;;;;;;;8.37;7.57;;;;;35.80;98871.00;;;;16802523;28;20303;-48
2022/07/22 12:12:41;;;;;;;8.10;7.50;;;;;35.40;98860.00;;;;16783292;28;20280;-48
2022/07/22 12:20:45;;;;;;;8.10;7.50;;;;;36.30;98848.00;;;;16772055;28;20640;-49
2022/07/22 12:28:49;;;;;;;9.50;7.33;;;;;36.90;98834.00;;;;16789973;28;20231;-47
2022/07/22 12:36:51;;;;;;;7.30;6.80;;;;;36.30;98825.00;;;;16806185;28;20347;-48
2022/07/22 12:45:01;;;;;;;7.00;6.50;;;;;37.40;98826.00;;;;16810525;28;20263;-49
2022/07/22 12:53:05;;;;;;;7.67;6.97;;;;;36.00;98818.00;;;;16785286;28;20208;-48
2022/07/22 13:01:09;;;;;;;7.37;6.87;;;;;38.60;98814.00;;;;16805488;28;20209;-48
2022/07/22 13:09:12;;;;;;;6.17;5.60;;;;;37.90;98812.00;;;;16800147;22;20720;-74
2022/07/22 13:17:16;;;;;;;6.07;5.60;;;;;38.30;98817.00;;;;16799474;28;20220;-73
2022/07/22 13:25:19;;;;;;;9.33;6.27;;;;;37.60;98808.00;;;;16804645;28;20339;-74
2022/07/22 13:33:23;;;;;;;6.90;6.37;;;;;39.00;98791.00;;;;16804166;28;20219;-73
2022/07/22 13:41:25;;;;;;;5.47;5.10;;;;;40.10;98788.00;;;;16817049;28;20217;-73
2022/07/22 13:49:29;;;;;;;6.30;5.90;;;;;42.10;98786.00;;;;16816801;28;20723;-74
2022/07/22 13:57:31;;;;;;;5.70;5.27;;;;;42.80;98783.00;;;;16790707;28;20234;-74
2022/07/22 14:05:35;;;;;;;6.17;5.77;;;;;41.30;98780.00;;;;16780971;28;20606;-75
2022/07/22 14:13:38;;;;;;;6.10;5.60;;;;;42.00;98769.00;;;;16795759;28;20254;-74
2022/07/22 14:21:44;;;;;;;5.80;5.40;;;;;42.00;98771.00;;;;16779115;28;20215;-75
2022/07/22 14:29:46;;;;;;;5.70;5.20;;;;;41.20;98767.00;;;;16780907;28;20688;-74
2022/07/22 14:37:50;;;;;;;7.07;5.10;;;;;37.90;98764.00;;;;16812947;28;20217;-74
2022/07/22 14:45:53;;;;;;;6.87;6.37;;;;;37.90;98756.00;;;;16806647;28;20725;-74
2022/07/22 14:53:57;;;;;;;6.20;5.70;;;;;40.10;98766.00;;;;16788044;22;20233;-50
2022/07/22 15:01:59;;;;;;;6.27;5.67;;;;;39.20;98751.00;;;;16759924;28;20212;-52
2022/07/22 15:10:03;;;;;;;6.30;5.80;;;;;42.10;98736.00;;;;16743601;22;20313;-72
2022/07/22 15:18:06;;;;;;;5.47;5.07;;;;;42.60;98732.00;;;;16715869;28;20197;-72
2022/07/22 15:26:10;;;;;;;5.27;4.97;;;;;43.10;98731.00;;;;16714475;28;20538;-72
2022/07/22 15:34:13;;;;;;;5.70;5.40;;;;;41.90;98718.00;;;;16708841;28;20222;-71
2022/07/22 15:42:17;;;;;;;5.93;5.50;;;;;41.70;98721.00;;;;16707488;28;20236;-71
2022/07/22 15:50:21;;;;;;;5.60;5.20;;;;;46.30;98730.00;;;;16696383;28;20221;-73
2022/07/22 16:06:45;;;;;;;6.10;5.70;;;;;43.70;98718.00;;;;16717906;28;20279;-71
2022/07/22 16:14:49;;;;;;;5.73;5.33;;;;;43.80;98698.00;;;;16703940;28;20217;-71
2022/07/22 16:22:52;;;;;;;6.43;5.90;;;;;41.00;98684.00;;;;16696470;28;20226;-69
2022/07/22 16:30:56;;;;;;;7.00;6.50;;;;;40.50;98679.00;;;;16717804;28;20222;-69
2022/07/22 16:39:00;;;;;;;8.40;7.70;;;;;40.80;98676.00;;;;16696072;28;20218;-68
2022/07/22 16:47:07;;;;;;;7.67;7.07;;;;;41.90;98677.00;;;;16699728;28;20233;-66
2022/07/22 16:55:10;;;;;;;5.93;5.53;;;;;43.30;98682.00;;;;16693972;28;20267;-69
2022/07/22 17:03:14;;;;;;;6.43;6.03;;;;;42.10;98675.00;;;;16759244;22;20732;-48
2022/07/22 17:11:17;;;;;;;7.50;6.70;;;;;43.00;98669.00;;;;16764520;28;20217;-48
2022/07/22 17:19:21;;;;;;;6.90;6.33;;;;;41.20;98661.00;;;;16733728;23;20229;-72
2022/07/22 17:27:23;;;;;;;9.97;9.23;;;;;40.90;98655.00;;;;16788616;28;20224;-71
2022/07/22 17:35:27;;;;;;;7.77;7.20;;;;;42.10;98651.00;;;;16803034;28;20217;-69
2022/07/22 17:43:30;;;;;;;7.23;6.73;;;;;43.40;98660.00;;;;16805215;28;20221;-70
2022/07/22 17:51:35;;;;;;;8.07;7.47;;;;;38.50;98661.00;;;;16806208;28;20237;-70
2022/07/22 17:59:38;;;;;;;7.37;6.77;;;;;36.10;98688.00;;;;16787969;28;20620;-71
2022/07/22 18:07:42;;;;;;;8.13;7.43;;;;;34.00;98705.00;;;;16785108;28;20686;-70
2022/07/22 18:15:44;;;;;;;8.07;7.53;;;;;32.70;98704.00;;;;16783160;28;20233;-71
2022/07/22 18:23:48;;;;;;;7.87;7.27;;;;;31.90;98743.00;;;;16801343;28;20309;-69
2022/07/22 18:31:51;;;;;;;7.80;7.20;;;;;31.90;98730.00;;;;16807004;28;20236;-69
2022/07/22 18:39:54;;;;;;;8.63;7.13;;;;;31.40;98743.00;;;;16804046;28;20232;-70
2022/07/22 18:47:57;;;;;;;7.10;6.60;;;;;31.30;98757.00;;;;16810145;28;20278;-70
2022/07/22 18:56:01;;;;;;;8.60;6.93;;;;;30.60;98786.00;;;;16796029;28;20224;-70
2022/07/22 19:04:04;;;;;;;8.60;7.90;;;;;30.50;98805.00;;;;16796765;28;20361;-70
2022/07/22 19:12:08;;;;;;;7.90;7.03;;;;;30.40;98808.00;;;;16793344;28;20815;-69
2022/07/22 19:20:12;;;;;;;9.00;8.30;;;;;30.10;98829.00;;;;16786719;28;20236;-69
2022/07/22 19:28:17;;;;;;;8.60;8.00;;;;;30.10;98827.00;;;;16774466;28;20306;-69
2022/07/22 19:36:19;;;;;;;9.00;8.30;;;;;30.30;98817.00;;;;16764856;28;20232;-70
2022/07/22 19:44:23;;;;;;;9.57;8.77;;;;;30.00;98816.00;;;;16774374;28;20232;-70
2022/07/22 19:52:26;;;;;;;9.03;8.33;;;;;29.30;98835.00;;;;16782453;28;20228;-69
2022/07/22 20:00:30;;;;;;;10.17;9.17;;;;;28.90;98861.00;;;;16793361;28;20274;-69
2022/07/22 20:08:32;;;;;;;9.97;9.20;;;;;28.10;98875.00;;;;16781090;28;20245;-69
2022/07/22 20:16:36;;;;;;;10.03;9.13;;;;;28.00;98867.00;;;;16782514;28;20221;-69
2022/07/22 20:24:39;;;;;;;9.53;8.70;;;;;28.00;98880.00;;;;16779297;28;20221;-69
2022/07/22 20:32:44;;;;;;;9.83;9.10;;;;;27.20;98894.00;;;;16765201;28;20213;-69
2022/07/22 20:40:46;;;;;;;9.00;8.20;;;;;27.10;98892.00;;;;16766307;28;20592;-69
2022/07/22 20:48:50;;;;;;;9.57;8.80;;;;;27.10;98914.00;;;;16765902;28;20232;-70
2022/07/22 20:56:53;;;;;;;9.67;8.57;;;;;28.00;98881.00;;;;16803555;28;20426;-66
2022/07/22 21:04:57;;;;;;;10.40;9.60;;;;;28.90;98832.00;;;;16800267;28;20225;-66
2022/07/22 21:13:00;;;;;;;9.23;8.53;;;;;28.20;98855.00;;;;16800846;28;20217;-66
2022/07/22 21:21:04;;;;;;;9.83;9.07;;;;;28.00;98862.00;;;;16812651;28;20375;-66
2022/07/22 21:29:07;;;;;;;10.13;9.23;;;;;27.30;98896.00;;;;16808318;28;20216;-66
2022/07/22 21:37:11;;;;;;;9.93;9.13;;;;;27.50;98927.00;;;;16797022;28;20189;-66
2022/07/22 21:45:14;;;;;;;10.77;9.83;;;;;27.40;98937.00;;;;16813657;28;20239;-65
2022/07/22 21:53:19;;;;;;;13.00;12.00;;;;;28.80;98908.00;;;;16790071;28;20292;-65
2022/07/22 22:01:21;;;;;;;10.30;9.50;;;;;28.50;98816.00;;;;16799900;28;20235;-66
2022/07/22 22:09:25;;;;;;;11.40;10.40;;;;;28.70;98832.00;;;;16774425;28;20262;-65
2022/07/22 22:17:28;;;;;;;10.73;9.83;;;;;28.80;98854.00;;;;16764016;28;20205;-65
2022/07/22 22:25:32;;;;;;;10.07;9.20;;;;;28.30;98884.00;;;;16772703;28;20247;-65
2022/07/22 22:33:34;;;;;;;9.67;8.90;;;;;28.90;98875.00;;;;16767381;28;20221;-65
2022/07/22 22:41:38;;;;;;;11.03;10.13;;;;;28.80;98778.00;;;;16772893;28;20594;-65
2022/07/22 22:49:41;;;;;;;10.50;9.60;;;;;28.50;98836.00;;;;16763805;28;20648;-65
2022/07/22 22:57:45;;;;;;;9.80;9.00;;;;;28.80;98871.00;;;;16758142;28;20232;-65
2022/07/22 23:05:47;;;;;;;9.57;8.70;;;;;28.90;98890.00;;;;16743503;22;20234;-46
2022/07/22 23:13:51;;;;;;;9.60;8.80;;;;;29.10;98904.00;;;;16706298;28;20198;-47
2022/07/22 23:21:54;;;;;;;8.77;7.97;;;;;28.90;98900.00;;;;16756976;23;20225;-47
2022/07/22 23:29:57;;;;;;;10.00;9.20;;;;;28.80;98896.00;;;;16752788;28;20232;-46
2022/07/22 23:38:02;;;;;;;8.03;7.43;;;;;28.70;98865.00;;;;16769212;28;21041;-46
2022/07/22 23:46:05;;;;;;;6.97;6.37;;;;;28.50;98867.00;;;;16766951;28;20227;-46
2022/07/22 23:54:17;;;;;;;8.17;6.90;;;;;28.50;98867.00;;;;16762551;28;20217;-46
